Time;durP1;ratioP1;P1;durP2;ratioP2;P2;SDS_P1;SDS_P2;PMS_P1;PMS_P2;Temp;Humidity;BMP_temperature;BMP_pressure;BME280_temperature;BME280_humidity;BME280_pressure;Samples;Min_cycle;Max_cycle;Signal;HPM_P1;HPM_P2
2021/05/12 00:01:08;;;;;;;3.35;2.03;;;10.60;1.00;;;;;;5034637;28;20014;-86
2021/05/12 00:03:35;;;;;;;3.35;2.08;;;10.60;1.00;;;;;;5032747;28;20027;-86
2021/05/12 00:06:01;;;;;;;2.97;2.00;;;11.10;1.00;;;;;;5031619;28;20021;-87
2021/05/12 00:08:26;;;;;;;2.40;2.20;;;10.70;1.00;;;;;;5031250;28;20060;-86
2021/05/12 00:10:52;;;;;;;1.98;1.77;;;10.70;1.00;;;;;;5032426;28;20085;-86
2021/05/12 00:13:18;;;;;;;6.68;2.08;;;10.70;1.00;;;;;;5033987;28;20037;-87
2021/05/12 00:15:43;;;;;;;4.07;2.00;;;10.70;1.00;;;;;;5032466;28;20092;-87
2021/05/12 00:18:13;;;;;;;2.97;2.00;;;10.70;1.00;;;;;;5031624;28;20107;-87
2021/05/12 00:20:40;;;;;;;4.68;2.13;;;10.60;1.00;;;;;;5032438;28;20032;-86
2021/05/12 00:23:10;;;;;;;3.33;2.10;;;10.50;1.00;;;;;;5030986;28;20488;-86
2021/05/12 00:25:35;;;;;;;3.95;2.10;;;10.50;1.00;;;;;;5032206;28;20025;-86
2021/05/12 00:28:01;;;;;;;2.40;2.08;;;10.40;1.00;;;;;;5033404;28;20041;-87
2021/05/12 00:30:26;;;;;;;2.17;1.77;;;10.40;1.00;;;;;;5032385;28;20033;-85
2021/05/12 00:32:52;;;;;;;6.47;2.10;;;10.50;1.00;;;;;;5031760;28;20080;-86
2021/05/12 00:35:19;;;;;;;2.25;1.70;;;10.60;1.00;;;;;;5031669;28;20036;-86
2021/05/12 00:37:45;;;;;;;3.28;1.80;;;10.60;1.00;;;;;;5032222;28;20029;-86
2021/05/12 00:40:13;;;;;;;4.72;2.10;;;10.60;1.00;;;;;;5033463;28;20402;-87
2021/05/12 00:42:39;;;;;;;5.07;1.77;;;10.80;1.00;;;;;;5030200;28;20021;-86
2021/05/12 00:45:07;;;;;;;4.15;2.13;;;10.80;1.00;;;;;;5031947;28;20429;-85
2021/05/12 00:47:33;;;;;;;4.00;2.03;;;10.80;1.00;;;;;;5030056;28;20363;-86
2021/05/12 00:50:00;;;;;;;3.10;2.20;;;10.80;1.00;;;;;;5030330;28;20029;-85
2021/05/12 00:52:26;;;;;;;3.40;1.92;;;10.80;1.00;;;;;;5033300;28;20034;-86
2021/05/12 00:54:55;;;;;;;2.60;2.10;;;10.80;1.00;;;;;;5032082;28;20036;-86
2021/05/12 00:57:22;;;;;;;4.20;2.25;;;10.80;1.00;;;;;;5031092;28;20030;-86
2021/05/12 00:59:50;;;;;;;4.10;1.90;;;10.70;1.00;;;;;;5031550;28;20539;-86
2021/05/12 01:02:16;;;;;;;3.83;1.83;;;10.60;1.00;;;;;;5031814;28;20401;-86
2021/05/12 01:04:42;;;;;;;3.08;1.95;;;10.70;1.00;;;;;;5030540;28;20038;-87
2021/05/12 01:07:08;;;;;;;2.05;1.80;;;10.80;1.00;;;;;;5033404;28;20037;-86
2021/05/12 01:09:34;;;;;;;2.90;2.03;;;10.70;1.00;;;;;;5031430;28;20139;-86
2021/05/12 01:11:59;;;;;;;6.85;2.22;;;10.70;1.00;;;;;;5031050;28;20026;-87
2021/05/12 01:14:25;;;;;;;8.18;3.58;;;10.80;1.00;;;;;;5031317;28;20033;-86
2021/05/12 01:16:52;;;;;;;6.93;3.22;;;10.80;1.00;;;;;;5031764;28;20026;-87
2021/05/12 01:19:17;;;;;;;10.10;3.45;;;10.60;1.00;;;;;;5028677;28;20038;-86
2021/05/12 01:21:43;;;;;;;4.13;2.58;;;10.60;1.00;;;;;;5029631;28;20033;-86
2021/05/12 01:24:09;;;;;;;5.55;3.08;;;10.60;1.00;;;;;;5029463;28;20028;-86
2021/05/12 01:26:36;;;;;;;6.63;2.63;;;10.90;1.00;;;;;;5031236;28;20390;-87
2021/05/12 01:29:02;;;;;;;3.35;2.20;;;10.70;1.00;;;;;;5030717;28;20029;-85
2021/05/12 01:31:42;;;;;;;3.08;1.92;;;10.80;1.00;;;;;;5031992;28;20025;-86
2021/05/12 01:34:16;;;;;;;3.63;2.20;;;10.70;1.00;;;;;;5031568;28;20452;-86
2021/05/12 01:36:43;;;;;;;5.50;2.63;;;10.70;1.00;;;;;;5029790;28;20435;-86
2021/05/12 01:39:10;;;;;;;3.55;2.03;;;10.70;1.00;;;;;;5030672;28;20033;-86
2021/05/12 01:41:37;;;;;;;3.72;2.30;;;10.70;1.00;;;;;;5029538;28;20092;-86
2021/05/12 01:44:11;;;;;;;4.75;2.13;;;10.50;1.00;;;;;;5030476;28;20044;-87
2021/05/12 01:46:38;;;;;;;2.58;2.20;;;10.50;1.00;;;;;;5031185;28;20018;-87
2021/05/12 01:49:04;;;;;;;5.93;2.00;;;10.70;1.00;;;;;;5032639;28;20048;-87
2021/05/12 01:51:30;;;;;;;5.18;2.00;;;10.50;1.00;;;;;;5030841;28;20486;-86
2021/05/12 01:53:55;;;;;;;4.18;2.30;;;10.50;1.00;;;;;;5030079;28;20056;-86
2021/05/12 01:56:21;;;;;;;2.72;2.00;;;10.70;1.00;;;;;;5030822;28;20041;-87
2021/05/12 01:58:47;;;;;;;2.80;2.35;;;10.70;1.00;;;;;;5030215;28;20072;-87
2021/05/12 02:01:12;;;;;;;3.13;2.05;;;10.70;1.00;;;;;;5032383;28;20504;-87
2021/05/12 02:03:38;;;;;;;2.92;2.20;;;10.70;1.00;;;;;;5028524;28;20025;-86
2021/05/12 02:06:04;;;;;;;2.85;2.08;;;11.20;1.00;;;;;;5030686;28;20026;-86
2021/05/12 02:08:30;;;;;;;2.50;2.17;;;10.90;1.00;;;;;;5030285;28;20124;-86
2021/05/12 02:11:02;;;;;;;4.18;2.30;;;10.80;1.00;;;;;;5029368;28;20117;-86
2021/05/12 02:13:31;;;;;;;2.35;2.15;;;10.80;1.00;;;;;;5031848;28;20025;-86
2021/05/12 02:15:59;;;;;;;4.10;2.42;;;10.70;1.00;;;;;;5032107;28;20563;-86
2021/05/12 02:18:25;;;;;;;3.67;2.20;;;10.80;1.00;;;;;;5030770;28;20060;-86
2021/05/12 02:20:51;;;;;;;3.85;2.15;;;10.90;1.00;;;;;;5028919;28;20057;-85
2021/05/12 02:23:20;;;;;;;5.70;2.30;;;10.70;1.00;;;;;;5029806;28;20017;-86
2021/05/12 02:25:46;;;;;;;2.20;1.90;;;10.40;1.00;;;;;;5030034;28;20032;-86
2021/05/12 02:28:12;;;;;;;2.67;1.90;;;10.70;1.00;;;;;;5032381;28;20034;-87
2021/05/12 02:30:39;;;;;;;2.83;1.88;;;10.50;1.00;;;;;;5030018;28;20105;-86
2021/05/12 02:33:05;;;;;;;2.97;2.17;;;10.60;1.00;;;;;;5030002;28;20063;-87
2021/05/12 02:35:31;;;;;;;2.78;2.17;;;10.70;1.00;;;;;;5030813;28;20119;-86
2021/05/12 02:37:57;;;;;;;3.05;2.28;;;10.60;1.00;;;;;;5029171;28;20069;-86
2021/05/12 02:40:23;;;;;;;4.95;2.35;;;10.40;1.00;;;;;;5033226;28;20026;-86
2021/05/12 02:42:51;;;;;;;11.07;2.55;;;10.60;1.00;;;;;;5048693;28;20045;-85
2021/05/12 02:45:18;;;;;;;2.95;2.13;;;10.50;1.00;;;;;;5033628;28;20028;-86
2021/05/12 02:47:57;;;;;;;4.70;2.15;;;10.60;1.00;;;;;;5033692;28;20063;-86
2021/05/12 02:50:27;;;;;;;3.70;1.90;;;10.60;1.00;;;;;;5032734;28;20033;-86
2021/05/12 02:52:53;;;;;;;4.45;2.30;;;10.60;1.00;;;;;;5018180;28;20033;-86
2021/05/12 02:55:19;;;;;;;2.22;1.90;;;11.00;1.00;;;;;;5035903;28;20023;-86
2021/05/12 02:57:45;;;;;;;4.35;2.20;;;10.50;1.00;;;;;;5033164;28;20038;-86
2021/05/12 03:00:12;;;;;;;5.22;2.30;;;10.50;1.00;;;;;;5031933;28;20029;-86
2021/05/12 03:02:37;;;;;;;4.15;2.40;;;10.40;1.00;;;;;;5031720;28;20076;-86
2021/05/12 03:05:04;;;;;;;3.40;2.40;;;10.40;1.00;;;;;;5034711;28;20029;-86
2021/05/12 03:07:30;;;;;;;4.78;2.40;;;10.50;1.00;;;;;;5034420;28;20128;-86
2021/05/12 03:09:56;;;;;;;3.63;2.10;;;10.40;1.00;;;;;;5034835;28;20117;-86
2021/05/12 03:12:21;;;;;;;2.63;2.40;;;10.80;1.00;;;;;;5033411;28;20082;-84
2021/05/12 03:14:47;;;;;;;5.00;3.20;;;10.40;1.00;;;;;;5033144;28;20532;-84
2021/05/12 03:17:12;;;;;;;4.72;2.40;;;10.20;1.00;;;;;;5031942;28;20041;-86
2021/05/12 03:19:38;;;;;;;3.42;2.38;;;10.30;1.00;;;;;;5033321;28;20029;-86
2021/05/12 03:22:03;;;;;;;2.50;2.30;;;9.90;1.00;;;;;;5035377;28;20032;-86
2021/05/12 03:24:29;;;;;;;4.68;2.40;;;10.10;1.00;;;;;;5034047;28;20092;-86
2021/05/12 03:26:55;;;;;;;3.47;2.60;;;10.10;1.00;;;;;;5030324;28;20022;-87
2021/05/12 03:29:20;;;;;;;5.57;3.00;;;10.10;1.00;;;;;;5033705;28;20049;-86
2021/05/12 03:31:46;;;;;;;5.07;2.42;;;10.10;1.00;;;;;;5034133;28;20032;-86
2021/05/12 03:34:11;;;;;;;5.53;2.80;;;10.00;1.00;;;;;;5035499;28;20086;-86
2021/05/12 03:36:37;;;;;;;5.63;2.88;;;9.90;1.00;;;;;;5032229;28;20018;-86
2021/05/12 03:39:04;;;;;;;4.15;2.90;;;9.90;1.00;;;;;;5032660;28;20033;-86
2021/05/12 03:41:30;;;;;;;5.07;2.85;;;9.80;1.00;;;;;;5033235;28;20404;-86
2021/05/12 03:43:56;;;;;;;3.35;2.90;;;9.70;1.00;;;;;;5032252;28;20037;-88
2021/05/12 03:46:21;;;;;;;3.55;2.80;;;10.00;1.00;;;;;;5035300;28;20083;-86
2021/05/12 03:48:47;;;;;;;3.72;2.92;;;9.60;1.00;;;;;;5034225;28;20034;-85
2021/05/12 03:51:13;;;;;;;4.70;2.88;;;9.50;1.00;;;;;;5033603;28;20393;-85
2021/05/12 03:53:38;;;;;;;3.53;2.72;;;9.80;1.00;;;;;;5032302;28;20032;-87
2021/05/12 03:56:04;;;;;;;4.72;2.78;;;9.50;1.00;;;;;;5032295;28;20017;-86
2021/05/12 03:58:29;;;;;;;5.35;2.90;;;9.50;1.00;;;;;;5033880;28;20178;-86
2021/05/12 04:00:57;;;;;;;3.60;3.10;;;9.50;1.00;;;;;;5033425;28;20034;-86
2021/05/12 04:03:23;;;;;;;5.60;3.63;;;9.40;1.00;;;;;;5033235;28;20474;-86
2021/05/12 04:05:48;;;;;;;5.72;3.67;;;9.40;1.00;;;;;;5032678;28;20033;-87
2021/05/12 04:08:14;;;;;;;4.38;3.30;;;9.30;1.00;;;;;;5031259;28;20045;-86
2021/05/12 04:10:40;;;;;;;5.32;3.33;;;9.30;1.00;;;;;;5032850;28;20056;-86
2021/05/12 04:13:05;;;;;;;4.10;3.38;;;9.30;1.00;;;;;;5034302;28;20025;-87
2021/05/12 04:15:31;;;;;;;6.55;3.70;;;9.30;1.00;;;;;;5032848;28;20561;-86
2021/05/12 04:17:57;;;;;;;3.67;3.10;;;9.30;1.00;;;;;;5032272;28;20080;-86
2021/05/12 04:20:22;;;;;;;3.30;2.83;;;9.30;1.00;;;;;;5032218;28;20041;-86
2021/05/12 04:22:49;;;;;;;4.65;3.10;;;9.20;1.00;;;;;;5032646;28;20038;-86
2021/05/12 04:25:20;;;;;;;6.80;2.97;;;9.20;1.00;;;;;;5034432;28;20516;-86
2021/05/12 04:27:47;;;;;;;3.85;2.90;;;9.20;1.00;;;;;;5032513;28;20025;-86
2021/05/12 04:30:15;;;;;;;3.75;3.00;;;9.10;1.00;;;;;;5032107;28;20032;-86
2021/05/12 04:32:41;;;;;;;4.35;3.25;;;9.10;1.00;;;;;;5032965;28;20061;-86
2021/05/12 04:35:08;;;;;;;5.13;3.10;;;9.20;1.00;;;;;;5028678;28;20049;-85
2021/05/12 04:37:34;;;;;;;4.00;3.35;;;9.20;1.00;;;;;;5030572;28;20034;-86
2021/05/12 04:39:59;;;;;;;4.22;3.08;;;9.20;1.00;;;;;;5033909;28;20040;-86
2021/05/12 04:42:25;;;;;;;5.13;3.25;;;9.10;1.00;;;;;;5031663;28;20029;-86
2021/05/12 04:44:55;;;;;;;3.95;3.05;;;9.10;1.00;;;;;;5032102;28;20021;-86
2021/05/12 04:47:21;;;;;;;5.82;3.35;;;9.20;1.00;;;;;;5031703;28;20033;-86
2021/05/12 04:49:46;;;;;;;5.55;2.85;;;9.30;1.00;;;;;;5031724;28;20036;-85
2021/05/12 04:52:13;;;;;;;4.13;3.20;;;9.30;1.00;;;;;;5033509;28;20375;-86
2021/05/12 04:54:39;;;;;;;5.30;3.38;;;9.40;1.00;;;;;;5031377;28;20025;-86
2021/05/12 04:57:05;;;;;;;8.18;3.35;;;9.40;1.00;;;;;;5031361;28;20037;-86
2021/05/12 04:59:31;;;;;;;3.17;2.80;;;9.50;1.00;;;;;;5031549;28;20448;-88
2021/05/12 05:01:57;;;;;;;5.72;3.15;;;9.50;1.00;;;;;;5031358;28;20056;-87
2021/05/12 05:04:23;;;;;;;4.72;3.08;;;9.50;1.00;;;;;;5032219;28;20101;-86
2021/05/12 05:06:49;;;;;;;5.57;3.08;;;9.60;1.00;;;;;;5032270;28;20018;-86
2021/05/12 05:09:15;;;;;;;4.10;2.83;;;9.60;1.00;;;;;;5031386;28;20045;-86
2021/05/12 05:11:40;;;;;;;4.07;3.20;;;9.60;1.00;;;;;;5031584;28;20068;-86
2021/05/12 05:14:07;;;;;;;3.90;2.60;;;9.50;1.00;;;;;;5029439;28;20046;-85
2021/05/12 05:16:33;;;;;;;4.80;2.90;;;9.50;1.00;;;;;;5031506;28;20462;-86
2021/05/12 05:18:59;;;;;;;4.10;2.80;;;9.50;1.00;;;;;;5032405;28;20466;-87
2021/05/12 05:21:26;;;;;;;3.38;2.65;;;9.50;1.00;;;;;;5031106;28;20049;-86
2021/05/12 05:23:52;;;;;;;3.85;2.85;;;9.60;1.00;;;;;;5031303;28;20029;-86
2021/05/12 05:26:18;;;;;;;4.57;2.67;;;9.70;1.00;;;;;;5030998;28;20394;-86
2021/05/12 05:28:44;;;;;;;7.38;2.78;;;9.80;1.00;;;;;;5031608;28;20037;-86
2021/05/12 05:31:11;;;;;;;5.40;3.00;;;9.70;1.00;;;;;;5031534;28;20021;-85
2021/05/12 05:33:36;;;;;;;5.95;3.28;;;9.70;1.00;;;;;;5030357;28;20057;-87
2021/05/12 05:36:02;;;;;;;4.18;2.80;;;9.80;1.00;;;;;;5031086;28;20044;-85
2021/05/12 05:38:28;;;;;;;7.72;3.38;;;9.80;1.00;;;;;;5031458;28;20036;-87
2021/05/12 05:40:53;;;;;;;4.97;3.00;;;9.80;1.00;;;;;;5031138;28;20029;-86
2021/05/12 05:43:19;;;;;;;5.32;3.13;;;9.70;1.00;;;;;;5033164;28;20032;-84
2021/05/12 05:45:44;;;;;;;2.88;2.42;;;9.80;1.00;;;;;;5030111;28;20026;-86
2021/05/12 05:48:11;;;;;;;4.07;2.45;;;9.80;1.00;;;;;;5030899;28;20041;-86
2021/05/12 05:50:37;;;;;;;3.53;2.65;;;10.20;1.00;;;;;;5030824;28;20072;-85
2021/05/12 05:53:03;;;;;;;14.43;3.08;;;10.20;1.00;;;;;;5030972;28;20091;-86
2021/05/12 05:55:29;;;;;;;3.20;2.63;;;10.10;1.00;;;;;;5031858;28;20033;-86
2021/05/12 05:57:55;;;;;;;6.38;2.83;;;10.30;1.00;;;;;;5029289;28;20151;-86
2021/05/12 06:00:21;;;;;;;4.47;2.58;;;10.30;1.00;;;;;;5030024;28;20033;-86
2021/05/12 06:02:47;;;;;;;4.47;2.60;;;10.40;1.00;;;;;;5031917;28;20501;-86
2021/05/12 06:05:13;;;;;;;5.72;3.35;;;10.40;1.00;;;;;;5030262;28;20044;-86
2021/05/12 06:07:39;;;;;;;5.22;2.83;;;10.50;1.00;;;;;;5030774;28;20040;-84
2021/05/12 06:10:06;;;;;;;3.95;2.92;;;11.00;1.00;;;;;;5032413;28;20034;-86
2021/05/12 06:12:32;;;;;;;3.60;2.65;;;10.60;1.00;;;;;;5029955;28;20030;-86
2021/05/12 06:14:58;;;;;;;5.57;3.67;;;11.00;1.00;;;;;;5029769;28;20040;-86
2021/05/12 06:17:23;;;;;;;5.72;4.20;;;10.50;1.00;;;;;;5034066;28;20064;-86
2021/05/12 06:19:49;;;;;;;5.28;4.15;;;10.60;1.00;;;;;;5034886;28;20064;-86
2021/05/12 06:22:15;;;;;;;6.95;4.10;;;10.70;1.00;;;;;;5036287;28;20095;-86
2021/05/12 06:24:42;;;;;;;5.43;4.15;;;10.70;1.00;;;;;;5031913;28;20030;-86
2021/05/12 06:27:09;;;;;;;7.85;4.00;;;10.80;1.00;;;;;;5034466;28;20129;-86
2021/05/12 06:29:36;;;;;;;5.63;4.05;;;10.90;1.00;;;;;;5033243;28;20712;-87
2021/05/12 06:32:02;;;;;;;5.57;3.55;;;11.00;1.00;;;;;;5032438;28;20022;-86
2021/05/12 06:34:27;;;;;;;5.47;3.78;;;11.00;1.00;;;;;;5035432;28;20029;-86
2021/05/12 06:36:53;;;;;;;5.18;3.97;;;11.10;1.00;;;;;;5034619;28;20381;-86
2021/05/12 06:39:18;;;;;;;5.40;3.40;;;11.10;1.00;;;;;;5034074;28;20025;-86
2021/05/12 06:41:44;;;;;;;4.85;3.55;;;11.10;1.00;;;;;;5033624;28;20493;-86
2021/05/12 06:44:09;;;;;;;7.60;3.40;;;11.20;1.00;;;;;;5032518;28;20034;-84
2021/05/12 06:46:35;;;;;;;8.18;4.15;;;11.20;1.00;;;;;;5035064;28;20030;-87
2021/05/12 06:49:01;;;;;;;4.55;3.00;;;11.20;1.00;;;;;;5033469;28;20056;-86
2021/05/12 06:51:26;;;;;;;4.25;2.88;;;11.20;1.00;;;;;;5034073;28;20486;-86
2021/05/12 06:53:52;;;;;;;6.07;3.00;;;11.30;1.00;;;;;;5033056;28;20025;-85
2021/05/12 06:56:17;;;;;;;6.07;2.90;;;11.70;1.00;;;;;;5033226;28;20032;-87
2021/05/12 06:58:43;;;;;;;5.28;2.70;;;11.40;1.00;;;;;;5032539;28;20040;-87
2021/05/12 07:01:09;;;;;;;4.78;2.40;;;11.40;1.00;;;;;;5035032;28;20021;-86
2021/05/12 07:03:35;;;;;;;4.30;2.33;;;11.50;1.00;;;;;;5033293;28;20034;-86
2021/05/12 07:06:02;;;;;;;4.45;2.15;;;11.90;1.00;;;;;;5034249;28;20021;-87
2021/05/12 07:08:27;;;;;;;4.35;2.55;;;11.60;1.00;;;;;;5031868;28;20037;-87
2021/05/12 07:10:53;;;;;;;4.75;2.35;;;11.60;1.00;;;;;;5032399;28;20025;-86
2021/05/12 07:13:19;;;;;;;5.85;2.67;;;11.60;1.00;;;;;;5034600;28;20076;-86
2021/05/12 07:15:45;;;;;;;4.70;2.15;;;11.60;1.00;;;;;;5033119;28;20029;-87
2021/05/12 07:18:11;;;;;;;6.25;3.08;;;11.70;1.00;;;;;;5032904;28;20029;-87
2021/05/12 07:20:36;;;;;;;8.48;2.95;;;11.90;1.00;;;;;;5032917;28;20022;-87
2021/05/12 07:23:07;;;;;;;6.47;2.88;;;12.40;1.00;;;;;;5033098;28;20508;-87
2021/05/12 07:25:33;;;;;;;4.38;2.50;;;12.50;1.00;;;;;;5033483;28;20098;-87
2021/05/12 07:27:59;;;;;;;4.68;2.08;;;12.30;1.00;;;;;;5032738;28;20560;-86
2021/05/12 07:30:25;;;;;;;4.22;1.85;;;12.40;1.00;;;;;;5032714;28;20120;-85
2021/05/12 07:32:51;;;;;;;5.70;2.13;;;12.60;1.00;;;;;;5032925;28;20232;-86
2021/05/12 07:35:17;;;;;;;4.05;1.60;;;13.20;1.00;;;;;;5033886;28;20025;-87
2021/05/12 07:37:43;;;;;;;4.05;1.58;;;13.20;1.00;;;;;;5032802;28;20505;-87
2021/05/12 07:40:09;;;;;;;5.43;1.48;;;13.30;1.00;;;;;;5034530;28;20022;-87
2021/05/12 07:42:37;;;;;;;5.93;1.80;;;13.20;1.00;;;;;;5032561;28;20026;-87
2021/05/12 07:45:03;;;;;;;8.90;2.40;;;13.50;1.00;;;;;;5032730;28;20017;-87
2021/05/12 07:47:29;;;;;;;4.82;1.52;;;13.20;1.00;;;;;;5032408;28;20025;-86
2021/05/12 07:49:54;;;;;;;6.32;1.60;;;13.60;1.00;;;;;;5031140;28;20033;-87
2021/05/12 07:52:20;;;;;;;9.80;1.90;;;13.40;1.00;;;;;;5034576;28;20045;-87
2021/05/12 07:54:48;;;;;;;6.28;2.10;;;13.60;1.00;;;;;;5032953;28;20402;-87
2021/05/12 07:57:14;;;;;;;5.68;2.15;;;13.60;1.00;;;;;;5031939;28;20045;-87
2021/05/12 07:59:40;;;;;;;6.28;1.77;;;13.60;1.00;;;;;;5032508;28;20071;-87
2021/05/12 08:02:05;;;;;;;3.58;1.60;;;13.70;1.00;;;;;;5031751;28;20049;-87
2021/05/12 08:04:31;;;;;;;8.43;2.17;;;13.80;1.00;;;;;;5032840;28;20060;-87
2021/05/12 08:06:58;;;;;;;5.95;1.92;;;13.80;1.00;;;;;;5033794;28;20017;-87
2021/05/12 08:09:24;;;;;;;4.47;1.60;;;14.20;1.00;;;;;;5032393;28;20437;-88
2021/05/12 08:11:50;;;;;;;5.75;1.83;;;14.10;1.00;;;;;;5031438;28;20456;-87
2021/05/12 08:14:16;;;;;;;4.38;2.10;;;14.30;1.00;;;;;;5031187;28;20021;-87
2021/05/12 08:16:42;;;;;;;3.58;1.35;;;14.20;1.00;;;;;;5032393;28;20040;-87
2021/05/12 08:19:08;;;;;;;8.32;2.20;;;14.30;1.00;;;;;;5033997;28;20076;-87
2021/05/12 08:21:34;;;;;;;6.90;1.60;;;14.70;1.00;;;;;;5030582;28;20366;-87
2021/05/12 08:24:00;;;;;;;4.97;1.48;;;15.40;1.00;;;;;;5032016;28;20018;-87
2021/05/12 08:26:26;;;;;;;6.20;1.70;;;15.90;1.00;;;;;;5031731;28;20036;-87
2021/05/12 08:28:53;;;;;;;8.63;1.77;;;15.50;1.00;;;;;;5030273;28;20401;-87
2021/05/12 08:31:19;;;;;;;4.22;1.55;;;15.60;1.00;;;;;;5034087;28;20025;-87
2021/05/12 08:33:45;;;;;;;4.43;1.38;;;15.50;99.90;;;;;;5031499;28;20536;-87
2021/05/12 08:36:12;;;;;;;5.07;1.40;;;15.80;99.90;;;;;;5031782;28;20037;-87
2021/05/12 08:38:39;;;;;;;4.60;1.55;;;15.80;99.90;;;;;;5031556;28;20037;-87
2021/05/12 08:41:05;;;;;;;4.38;1.25;;;15.50;99.90;;;;;;5031166;28;20020;-87
2021/05/12 08:43:31;;;;;;;4.90;1.45;;;15.40;99.90;;;;;;5032238;28;20108;-87
2021/05/12 08:45:57;;;;;;;7.30;1.70;;;15.90;99.90;;;;;;5032475;28;20018;-86
2021/05/12 08:48:24;;;;;;;4.78;1.40;;;16.20;99.90;;;;;;5032128;28;20453;-87
2021/05/12 08:50:52;;;;;;;6.50;1.70;;;16.50;99.90;;;;;;5031679;28;20029;-87
2021/05/12 08:53:18;;;;;;;5.25;1.70;;;16.40;99.90;;;;;;5031618;28;20033;-87
2021/05/12 08:55:45;;;;;;;6.00;1.40;;;16.80;99.90;;;;;;5030727;28;20042;-87
2021/05/12 08:58:11;;;;;;;5.95;1.50;;;16.40;99.90;;;;;;5033137;28;20036;-87
2021/05/12 09:00:36;;;;;;;5.00;1.30;;;16.50;99.90;;;;;;5031074;28;20116;-87
2021/05/12 09:03:03;;;;;;;3.95;1.38;;;16.50;99.90;;;;;;5031950;28;20033;-87
2021/05/12 09:05:29;;;;;;;4.95;1.23;;;16.70;99.90;;;;;;5030915;28;20025;-88
2021/05/12 09:07:55;;;;;;;3.35;1.10;;;16.20;99.90;;;;;;5029558;28;20086;-88
2021/05/12 09:10:22;;;;;;;2.97;1.35;;;16.60;99.90;;;;;;5032451;28;20060;-87
2021/05/12 09:12:49;;;;;;;9.45;1.77;;;16.40;99.90;;;;;;5032179;28;20469;-87
2021/05/12 09:15:18;;;;;;;5.57;1.33;;;16.60;99.90;;;;;;5031218;28;20025;-88
2021/05/12 09:17:46;;;;;;;6.85;1.30;;;16.50;99.90;;;;;;5029945;28;20030;-87
2021/05/12 09:20:24;;;;;;;5.40;1.58;;;16.40;99.90;;;;;;5031677;28;20033;-87
2021/05/12 09:23:04;;;;;;;3.85;1.52;;;16.50;99.90;;;;;;5014697;28;20053;-87
2021/05/12 09:25:32;;;;;;;6.18;1.02;;;16.20;99.90;;;;;;5030052;28;20029;-87
2021/05/12 09:28:08;;;;;;;5.47;1.40;;;16.30;99.90;;;;;;5032376;28;20057;-87
2021/05/12 09:30:38;;;;;;;6.32;1.42;;;16.60;99.90;;;;;;5030543;28;20040;-87
2021/05/12 09:33:07;;;;;;;5.28;1.30;;;16.60;99.90;;;;;;5030481;28;20037;-87
2021/05/12 09:35:43;;;;;;;3.80;1.08;;;16.60;99.90;;;;;;5029265;28;20397;-87
2021/05/12 09:38:23;;;;;;;4.68;1.58;;;16.60;99.90;;;;;;5030332;28;20029;-87
2021/05/12 09:41:02;;;;;;;4.22;1.65;;;17.00;99.90;;;;;;5031068;28;20072;-87
2021/05/12 09:43:29;;;;;;;3.20;1.20;;;16.80;99.90;;;;;;5028914;28;20092;-87
2021/05/12 09:46:14;;;;;;;3.10;1.13;;;16.70;99.90;;;;;;5031689;28;20037;-87
2021/05/12 09:48:49;;;;;;;3.88;1.13;;;17.00;99.90;;;;;;5028911;28;20120;-87
2021/05/12 09:51:17;;;;;;;4.40;1.20;;;17.00;99.90;;;;;;5029678;28;20034;-87
2021/05/12 09:54:04;;;;;;;3.88;1.02;;;17.50;99.90;;;;;;5029977;28;20018;-87
2021/05/12 09:56:56;;;;;;;5.45;1.40;;;17.20;99.90;;;;;;5029400;28;20029;-87
2021/05/12 09:59:30;;;;;;;3.25;1.00;;;17.10;99.90;;;;;;5030322;28;20083;-88
2021/05/12 10:02:00;;;;;;;5.93;1.23;;;17.40;99.90;;;;;;5015353;28;20080;-88
2021/05/12 10:04:43;;;;;;;5.72;1.20;;;17.30;99.90;;;;;;5031831;28;20075;-88
2021/05/12 10:07:27;;;;;;;4.97;1.10;;;17.10;99.90;;;;;;5030894;28;20035;-87
2021/05/12 10:09:55;;;;;;;4.50;1.20;;;17.20;99.90;;;;;;5029729;28;20037;-88
2021/05/12 10:12:22;;;;;;;4.10;1.35;;;17.50;99.90;;;;;;5030411;28;20030;-88
2021/05/12 10:14:52;;;;;;;4.35;1.23;;;17.30;99.90;;;;;;5030029;28;20084;-87
2021/05/12 10:17:20;;;;;;;3.78;1.13;;;18.00;99.90;;;;;;5030998;28;20397;-87
2021/05/12 10:19:47;;;;;;;3.65;1.10;;;17.90;99.90;;;;;;5030061;28;20014;-87
2021/05/12 10:22:13;;;;;;;4.25;1.30;;;18.00;99.90;;;;;;5031588;28;20033;-87
2021/05/12 10:24:41;;;;;;;5.32;1.60;;;18.30;99.90;;;;;;5029984;28;20037;-88
2021/05/12 10:27:12;;;;;;;3.75;1.17;;;18.30;99.90;;;;;;5027331;28;20046;-88
2021/05/12 10:29:41;;;;;;;2.92;1.15;;;18.50;99.90;;;;;;5030178;28;20401;-87
2021/05/12 10:32:22;;;;;;;4.70;1.30;;;18.70;99.90;;;;;;5030298;28;20045;-88
2021/05/12 10:35:07;;;;;;;4.15;1.10;;;18.90;99.90;;;;;;5029746;28;20384;-88
2021/05/12 10:37:38;;;;;;;6.70;1.00;;;19.30;99.90;;;;;;5027857;28;20393;-88
2021/05/12 10:40:16;;;;;;;2.70;1.20;;;19.40;99.90;;;;;;5030081;28;20036;-88
2021/05/12 10:42:48;;;;;;;3.33;1.10;;;19.90;99.90;;;;;;5030509;28;20037;-88
2021/05/12 10:45:31;;;;;;;3.10;1.20;;;20.20;99.90;;;;;;5029768;28;20068;-89
2021/05/12 10:47:57;;;;;;;4.15;1.08;;;19.80;99.90;;;;;;5029368;28;20025;-87
2021/05/12 10:50:45;;;;;;;2.30;1.05;;;19.90;99.90;;;;;;5030129;28;20036;-87
2021/05/12 10:53:24;;;;;;;4.00;0.90;;;19.80;99.90;;;;;;5016927;28;20029;-88
2021/05/12 10:55:55;;;;;;;3.17;0.80;;;20.10;99.90;;;;;;5014421;28;20030;-88
2021/05/12 10:58:21;;;;;;;3.17;0.90;;;20.10;99.90;;;;;;5028332;28;20037;-88
2021/05/12 11:01:01;;;;;;;2.35;0.95;;;20.60;99.90;;;;;;5028417;28;20029;-88
2021/05/12 11:03:52;;;;;;;5.05;1.23;;;20.80;99.90;;;;;;5033373;28;20060;-88
2021/05/12 11:06:19;;;;;;;3.42;1.05;;;20.70;99.90;;;;;;5031276;28;20041;-88
2021/05/12 11:09:08;;;;;;;4.30;1.13;;;20.80;99.90;;;;;;5033238;28;20045;-88
2021/05/12 11:11:52;;;;;;;2.83;0.80;;;21.10;99.90;;;;;;5033687;28;20026;-88
2021/05/12 11:14:27;;;;;;;1.45;0.70;;;21.10;99.90;;;;;;5034457;28;20034;-88
2021/05/12 11:17:13;;;;;;;2.85;0.77;;;23.70;99.90;;;;;;5018058;28;20404;-88
2021/05/12 11:19:50;;;;;;;2.08;1.00;;;27.30;99.90;;;;;;5033150;28;20021;-88
2021/05/12 11:24:53;;;;;;;3.65;1.02;;;31.50;99.90;;;;;;5032107;28;20497;-88
2021/05/12 11:27:29;;;;;;;2.47;0.80;;;31.00;99.90;;;;;;5033059;28;20033;-88
2021/05/12 11:32:24;;;;;;;2.65;0.93;;;31.60;99.90;;;;;;5032294;28;20037;-88
2021/05/12 11:34:50;;;;;;;3.47;1.30;;;31.50;99.90;;;;;;5033199;28;20092;-88
2021/05/12 11:37:18;;;;;;;2.22;1.10;;;30.40;99.90;;;;;;5033610;28;20428;-89
2021/05/12 11:39:49;;;;;;;2.15;1.00;;;29.50;99.90;;;;;;5032800;28;20032;-88
2021/05/12 11:42:22;;;;;;;3.15;1.00;;;30.90;99.90;;;;;;5032939;28;20440;-88
2021/05/12 11:44:49;;;;;;;2.97;1.05;;;29.30;99.90;;;;;;5031480;28;20034;-88
2021/05/12 11:47:31;;;;;;;3.22;1.00;;;29.70;99.90;;;;;;5032492;28;20017;-88
2021/05/12 11:49:57;;;;;;;1.35;0.82;;;29.70;99.90;;;;;;5017753;28;20041;-89
2021/05/12 11:52:32;;;;;;;1.65;1.08;;;29.90;99.90;;;;;;5034604;28;20018;-88
2021/05/12 11:55:08;;;;;;;3.67;1.30;;;28.90;99.90;;;;;;5033789;28;20044;-89
2021/05/12 11:57:35;;;;;;;3.35;0.95;;;27.90;99.90;;;;;;5033367;28;20029;-88
2021/05/12 12:00:07;;;;;;;2.40;0.95;;;27.50;99.90;;;;;;5033436;28;20036;-88
2021/05/12 12:02:32;;;;;;;4.13;1.40;;;28.10;99.90;;;;;;5031956;28;20481;-88
2021/05/12 12:05:03;;;;;;;2.55;0.80;;;28.30;99.90;;;;;;5032700;28;20056;-88
2021/05/12 12:07:31;;;;;;;2.47;1.00;;;27.80;99.90;;;;;;5033805;28;20083;-88
2021/05/12 12:10:04;;;;;;;1.88;1.00;;;26.90;99.90;;;;;;5033165;28;20036;-88
2021/05/12 12:12:32;;;;;;;1.83;0.90;;;25.60;99.90;;;;;;5032480;28;20481;-88
2021/05/12 12:15:05;;;;;;;3.63;0.80;;;26.70;99.90;;;;;;5031685;28;20489;-88
2021/05/12 12:17:31;;;;;;;1.35;0.90;;;26.70;99.90;;;;;;5031071;28;20146;-88
2021/05/12 12:20:05;;;;;;;2.53;0.88;;;26.60;99.90;;;;;;5032369;28;20117;-88
2021/05/12 12:22:31;;;;;;;3.63;0.82;;;26.70;99.90;;;;;;5032714;28;20120;-88
2021/05/12 12:25:11;;;;;;;1.42;0.90;;;26.30;99.90;;;;;;5032197;28;20089;-88
2021/05/12 12:27:40;;;;;;;6.30;1.10;;;25.90;99.90;;;;;;5031477;28;20038;-88
2021/05/12 12:30:06;;;;;;;2.85;0.90;;;27.00;99.90;;;;;;5031525;28;20496;-88
2021/05/12 12:32:32;;;;;;;2.20;1.00;;;28.70;99.90;;;;;;5031534;28;20045;-88
2021/05/12 12:35:00;;;;;;;1.70;0.88;;;30.60;99.90;;;;;;5031562;28;20091;-88
2021/05/12 12:37:36;;;;;;;2.55;0.95;;;31.10;99.90;;;;;;5033008;28;20065;-89
2021/05/12 12:40:09;;;;;;;2.25;1.08;;;30.70;99.90;;;;;;5032062;28;20425;-89
2021/05/12 12:42:35;;;;;;;2.58;0.90;;;31.10;99.90;;;;;;5031545;28;20385;-89
2021/05/12 12:45:04;;;;;;;1.83;0.90;;;31.30;99.90;;;;;;5031584;28;20108;-88
2021/05/12 12:47:30;;;;;;;2.13;0.90;;;31.20;99.90;;;;;;5031448;28;20423;-88
2021/05/12 12:50:01;;;;;;;3.88;0.82;;;32.40;99.90;;;;;;5028420;28;20061;-88
2021/05/12 12:52:29;;;;;;;3.08;0.90;;;32.20;99.90;;;;;;5029893;28;20029;-88
2021/05/12 12:55:04;;;;;;;1.35;0.73;;;30.70;99.90;;;;;;5032547;28;20375;-89
2021/05/12 12:57:36;;;;;;;6.13;1.15;;;29.30;99.90;;;;;;5031293;28;20032;-89
2021/05/12 13:00:17;;;;;;;3.15;0.90;;;27.10;99.90;;;;;;5031169;28;20032;-89
2021/05/12 13:03:01;;;;;;;2.42;1.10;;;25.80;99.90;;;;;;5028853;28;20037;-88
2021/05/12 13:05:44;;;;;;;3.05;1.23;;;25.90;99.90;;;;;;5031092;28;20029;-88